Terminal Aerodrome Forecast
Issued by NWS

Home | Current Version | Previous Version | Text Only | Print | Product List | Glossary On
Versions: 1 2 3 4 5 6 7 8 9 10 11 12 13 14 15 16 17 18 19 20 21 22 23 24 25 26 27 28 29 30 31 32 33
481
FTUS45 KGJT 282356 AAA
TAFASE
TAF AMD
KASE 282356Z 2900/2924 28012G17KT P6SM VCTS BKN040CB
      TEMPO 2900/2902 VRB20G32KT -TSRA
     FM290200 33004KT P6SM SCT250
     FM290500 09004KT P6SM SCT250
     FM291300 16007KT P6SM SCT250
     FM291600 24006KT P6SM SCT250
     FM291800 29008KT P6SM VCSH BKN250
     FM292300 22006KT P6SM VCSH BKN120=

USA.gov is the U.S. government's official web portal to all federal, state and local government web resources and services.